createdAt,value
2019-01-21T00:04:00.003Z,35.33
2019-01-21T00:09:06.183Z,36.63
2019-01-21T00:14:10.384Z,36.90
2019-01-21T00:19:14.568Z,36.97
2019-01-21T00:24:18.782Z,36.87
2019-01-21T00:29:23.031Z,39.43
2019-01-21T00:34:27.247Z,38.50
2019-01-21T00:39:31.600Z,39.07
2019-01-21T00:44:35.800Z,35.67
2019-01-21T00:49:40.288Z,36.10
2019-01-21T00:54:44.485Z,37.30
2019-01-21T00:59:48.779Z,37.20
2019-01-21T01:04:52.996Z,36.43
2019-01-21T01:09:57.283Z,34.80
2019-01-21T01:15:01.488Z,34.37
2019-01-21T01:20:09.370Z,34.50
2019-01-21T01:25:13.736Z,35.40
2019-01-21T01:30:18.338Z,35.27
2019-01-21T01:35:22.546Z,35.63
2019-01-21T01:40:26.787Z,36.03
2019-01-21T01:45:31.093Z,35.87
2019-01-21T01:50:35.350Z,33.30
2019-01-21T01:55:39.537Z,34.90
2019-01-21T02:00:43.736Z,34.47
2019-01-21T02:05:48.090Z,32.10
2019-01-21T02:10:52.648Z,34.70
2019-01-21T02:15:56.903Z,32.80
2019-01-21T02:21:05.207Z,34.13
2019-01-21T02:26:23.979Z,32.03
2019-01-21T02:32:07.760Z,34.20
2019-01-21T02:37:53.317Z,32.77
2019-01-21T02:43:22.910Z,32.07
2019-01-21T02:48:52.351Z,30.93
2019-01-21T02:54:23.647Z,30.93
2019-01-21T03:00:21.151Z,31.63
2019-01-21T03:06:12.059Z,32.63
2019-01-21T03:11:38.648Z,31.43
2019-01-21T03:17:20.842Z,32.10
2019-01-21T03:22:58.143Z,31.93
2019-01-21T03:28:45.876Z,30.10
2019-01-21T03:34:14.145Z,30.73
2019-01-21T03:39:49.712Z,29.97
2019-01-21T03:45:40.904Z,27.77
2019-01-21T03:51:08.697Z,28.23
2019-01-21T03:56:24.186Z,28.10
2019-01-21T04:01:54.326Z,27.40
2019-01-21T04:07:10.235Z,26.60
2019-01-21T04:12:43.439Z,27.30
2019-01-21T04:18:47.216Z,27.23
2019-01-21T04:24:34.024Z,27.23
2019-01-21T04:30:33.354Z,27.93
2019-01-21T04:35:53.336Z,27.83
2019-01-21T04:41:16.037Z,27.23
2019-01-21T04:47:13.398Z,26.93
2019-01-21T04:52:44.863Z,27.27
2019-01-21T04:58:18.972Z,27.13
2019-01-21T05:04:10.687Z,27.57
2019-01-21T05:09:46.665Z,29.77
2019-01-21T05:15:30.076Z,27.07
2019-01-21T05:21:18.454Z,29.00
2019-01-21T05:27:11.658Z,27.70
2019-01-21T05:32:57.892Z,25.50
2019-01-21T05:38:17.661Z,31.30
2019-01-21T05:43:59.097Z,26.23
2019-01-21T05:49:51.165Z,26.37
2019-01-21T05:55:36.579Z,25.63
2019-01-21T06:01:34.287Z,27.33
2019-01-21T06:07:00.855Z,28.77
2019-01-21T06:12:33.643Z,26.77
2019-01-21T06:18:07.796Z,26.40
2019-01-21T06:24:20.334Z,26.30
2019-01-21T06:29:43.560Z,26.30
2019-01-21T06:35:21.244Z,26.27
2019-01-21T06:40:59.695Z,25.80
2019-01-21T06:46:30.188Z,24.97
2019-01-21T06:52:08.940Z,26.07
2019-01-21T06:57:39.239Z,25.60
2019-01-21T07:03:17.262Z,25.83
2019-01-21T07:08:50.847Z,25.20
2019-01-21T07:14:14.279Z,25.13
2019-01-21T07:19:29.610Z,25.50
2019-01-21T07:25:03.162Z,26.63
2019-01-21T07:30:49.279Z,24.13
2019-01-21T07:36:46.843Z,24.67
2019-01-21T07:42:32.841Z,23.53
2019-01-21T07:48:20.514Z,23.47
2019-01-21T07:54:08.534Z,23.27
2019-01-21T08:00:11.971Z,23.07
2019-01-21T08:06:09.555Z,22.27
2019-01-21T08:12:04.538Z,21.90
2019-01-21T08:17:42.723Z,21.03
2019-01-21T08:23:17.194Z,18.30
2019-01-21T08:28:51.462Z,18.97
2019-01-21T08:34:20.612Z,19.20
2019-01-21T08:39:48.765Z,19.27
2019-01-21T08:45:58.311Z,19.90
2019-01-21T08:51:14.979Z,19.37
2019-01-21T08:56:46.000Z,19.27
2019-01-21T09:02:36.120Z,18.57
2019-01-21T09:08:37.579Z,18.20
2019-01-21T09:14:23.919Z,19.37
2019-01-21T09:20:03.242Z,18.43
2019-01-21T09:25:35.484Z,17.73
2019-01-21T09:31:35.440Z,18.67
2019-01-21T09:36:51.900Z,19.77
2019-01-21T09:42:21.343Z,19.20
2019-01-21T09:47:23.993Z,18.27
2019-01-21T09:52:28.700Z,16.53
2019-01-21T09:57:33.459Z,17.90
2019-01-21T10:02:49.275Z,17.83
2019-01-21T10:08:26.953Z,16.37
2019-01-21T10:14:14.454Z,16.07
2019-01-21T10:20:02.679Z,16.07
2019-01-21T10:25:51.001Z,16.83
2019-01-21T10:31:15.852Z,15.43
2019-01-21T10:36:35.111Z,16.73
2019-01-21T10:41:53.175Z,15.63
2019-01-21T10:47:25.709Z,15.13
2019-01-21T10:53:26.587Z,15.37
2019-01-21T10:58:55.537Z,13.68
2019-01-21T11:04:33.823Z,14.30
2019-01-21T11:10:09.195Z,15.70
2019-01-21T11:15:25.048Z,16.43
2019-01-21T11:21:13.128Z,15.73
2019-01-21T11:26:53.052Z,15.37
2019-01-21T11:32:33.055Z,13.67
2019-01-21T11:38:17.524Z,13.60
2019-01-21T11:43:48.837Z,13.38
2019-01-21T11:49:55.431Z,13.13
2019-01-21T11:55:36.772Z,12.65
2019-01-21T12:01:24.047Z,12.60
2019-01-21T12:06:44.307Z,13.13
2019-01-21T12:12:19.125Z,12.90
2019-01-21T12:17:49.311Z,13.70
2019-01-21T12:23:33.526Z,14.23
2019-01-21T12:28:51.387Z,13.67
2019-01-21T12:34:06.071Z,14.83
2019-01-21T12:39:54.752Z,15.53
2019-01-21T12:45:45.908Z,14.53
2019-01-21T12:51:19.092Z,14.23
2019-01-21T12:57:03.559Z,14.20
2019-01-21T13:02:36.999Z,13.30
2019-01-21T13:08:22.307Z,14.10
2019-01-21T13:13:55.875Z,14.50
2019-01-21T13:19:42.931Z,14.50
2019-01-21T13:25:23.936Z,14.57
2019-01-21T13:31:12.051Z,15.30
2019-01-21T13:36:47.939Z,13.97
2019-01-21T13:42:16.956Z,15.97
2019-01-21T13:47:57.300Z,15.43
2019-01-21T13:53:57.723Z,15.50
2019-01-21T13:59:58.403Z,15.77
2019-01-21T14:05:12.977Z,15.30
2019-01-21T14:11:03.176Z,15.30
2019-01-21T14:16:42.431Z,15.30
2019-01-21T14:22:16.908Z,15.03
2019-01-21T14:28:07.913Z,16.67
2019-01-21T14:33:32.913Z,16.43
2019-01-21T14:39:17.038Z,16.43
2019-01-21T14:44:35.439Z,16.67
2019-01-21T14:50:02.724Z,17.17
2019-01-21T14:55:30.684Z,16.20
2019-01-21T15:01:09.961Z,17.53
2019-01-21T15:06:41.870Z,18.17
2019-01-21T15:12:27.119Z,16.87
2019-01-21T15:18:08.221Z,17.43
2019-01-21T15:23:41.182Z,18.70
2019-01-21T15:29:21.462Z,18.57
2019-01-21T15:35:09.384Z,19.23
2019-01-21T15:41:00.532Z,18.73
2019-01-21T15:46:46.473Z,19.07
2019-01-21T15:52:16.436Z,19.63
2019-01-21T15:57:43.711Z,19.93
2019-01-21T16:03:16.996Z,18.90
2019-01-21T16:09:02.346Z,19.03
2019-01-21T16:14:29.575Z,18.37
2019-01-21T16:20:00.781Z,18.57
2019-01-21T16:25:41.795Z,21.07
2019-01-21T16:31:14.850Z,19.83
2019-01-21T16:37:03.602Z,18.27
2019-01-21T16:42:15.894Z,18.73
2019-01-21T16:47:20.111Z,19.47
2019-01-21T16:52:24.368Z,20.37
2019-01-21T16:57:28.558Z,19.53
2019-01-21T17:02:32.821Z,19.17
2019-01-21T17:07:37.076Z,19.73
2019-01-21T17:12:41.298Z,19.77
2019-01-21T17:17:45.569Z,21.10
2019-01-21T17:22:49.830Z,19.90
2019-01-21T17:27:54.032Z,20.47
2019-01-21T17:32:58.233Z,20.27
2019-01-21T17:38:02.532Z,19.27
2019-01-21T17:43:06.882Z,19.60
2019-01-21T17:48:11.156Z,19.70
2019-01-21T17:53:15.378Z,20.53
2019-01-21T17:58:19.683Z,20.57
2019-01-21T18:03:24.062Z,20.77
2019-01-21T18:08:28.435Z,20.33
2019-01-21T18:13:32.724Z,20.27
2019-01-21T18:18:36.981Z,20.90
2019-01-21T18:23:41.811Z,19.80
2019-01-21T18:28:46.186Z,20.77
2019-01-21T18:33:50.528Z,20.77
2019-01-21T18:38:54.888Z,21.07
2019-01-21T18:43:59.084Z,20.50
2019-01-21T18:49:03.359Z,19.90
2019-01-21T18:54:07.748Z,19.63
2019-01-21T18:59:12.078Z,20.30
2019-01-21T19:04:15.758Z,21.30
2019-01-21T19:09:19.647Z,20.50
2019-01-21T19:14:23.329Z,22.47
2019-01-21T19:19:27.079Z,21.47
2019-01-21T19:24:30.787Z,21.37
2019-01-21T19:29:34.537Z,21.43
2019-01-21T19:34:38.312Z,21.23
2019-01-21T19:39:42.184Z,20.80
2019-01-21T19:44:45.916Z,21.83
2019-01-21T19:49:49.680Z,21.37
2019-01-21T19:54:53.470Z,21.57
2019-01-21T19:59:57.256Z,21.07
2019-01-21T20:05:01.104Z,20.57
2019-01-21T20:10:06.558Z,20.97
2019-01-21T20:15:11.118Z,21.03
2019-01-21T20:20:16.568Z,20.57
2019-01-21T20:25:20.315Z,20.40
2019-01-21T20:30:24.294Z,20.17
2019-01-21T20:35:28.128Z,19.70
2019-01-21T20:40:32.228Z,20.40
2019-01-21T20:45:35.894Z,19.80
2019-01-21T20:50:39.645Z,19.00
2019-01-21T20:55:43.410Z,19.30
2019-01-21T21:00:47.153Z,18.87
2019-01-21T21:05:50.990Z,18.80
2019-01-21T21:10:54.812Z,19.50
2019-01-21T21:15:58.689Z,18.90
2019-01-21T21:21:02.533Z,19.10
2019-01-21T21:26:06.430Z,18.70
2019-01-21T21:31:10.464Z,19.67
2019-01-21T21:36:14.335Z,18.13
2019-01-21T21:41:18.206Z,18.57
2019-01-21T21:46:22.060Z,18.70
2019-01-21T21:51:25.951Z,18.23
2019-01-21T21:56:29.837Z,16.87
2019-01-21T22:01:33.759Z,19.07
2019-01-21T22:06:37.593Z,18.40
2019-01-21T22:11:41.417Z,17.33
2019-01-21T22:16:45.305Z,17.90
2019-01-21T22:21:49.114Z,17.93
2019-01-21T22:26:53.070Z,18.97
2019-01-21T22:31:57.162Z,18.03
2019-01-21T22:37:02.231Z,17.87
2019-01-21T22:42:05.975Z,17.60
2019-01-21T22:47:09.967Z,17.37
2019-01-21T22:52:13.682Z,18.10
2019-01-21T22:57:17.929Z,18.40
2019-01-21T23:02:21.699Z,18.43
2019-01-21T23:07:25.363Z,20.37
2019-01-21T23:12:29.091Z,19.67
2019-01-21T23:17:32.783Z,19.23
2019-01-21T23:22:36.433Z,17.40
2019-01-21T23:27:40.090Z,19.27
2019-01-21T23:32:43.892Z,18.70
2019-01-21T23:37:47.825Z,20.60
2019-01-21T23:42:51.471Z,20.57
2019-01-21T23:47:55.205Z,20.73
2019-01-21T23:52:59.269Z,20.60
2019-01-21T23:58:03.018Z,20.27
